sensor_id;sensor_type;location;lat;lon;timestamp;P1;durP1;ratioP1;P2;durP2;ratioP2
32292;SDS011;43233;48.608;8.838;2024-03-25T00:01:54;5.70;;;3.87;;
32292;SDS011;43233;48.608;8.838;2024-03-25T00:04:20;3.20;;;2.90;;
32292;SDS011;43233;48.608;8.838;2024-03-25T00:06:47;4.50;;;2.83;;
32292;SDS011;43233;48.608;8.838;2024-03-25T00:09:14;5.67;;;3.70;;
32292;SDS011;43233;48.608;8.838;2024-03-25T00:11:42;4.53;;;3.00;;
32292;SDS011;43233;48.608;8.838;2024-03-25T00:14:09;2.67;;;2.57;;
32292;SDS011;43233;48.608;8.838;2024-03-25T00:16:35;6.10;;;3.27;;
32292;SDS011;43233;48.608;8.838;2024-03-25T00:19:01;5.63;;;3.43;;
32292;SDS011;43233;48.608;8.838;2024-03-25T00:21:27;4.27;;;3.00;;
32292;SDS011;43233;48.608;8.838;2024-03-25T00:23:52;5.90;;;3.63;;
32292;SDS011;43233;48.608;8.838;2024-03-25T00:26:21;3.90;;;3.50;;
32292;SDS011;43233;48.608;8.838;2024-03-25T00:28:47;9.13;;;3.83;;
32292;SDS011;43233;48.608;8.838;2024-03-25T00:31:13;4.10;;;3.00;;
32292;SDS011;43233;48.608;8.838;2024-03-25T00:33:39;11.70;;;3.13;;
32292;SDS011;43233;48.608;8.838;2024-03-25T00:36:05;7.80;;;3.03;;
32292;SDS011;43233;48.608;8.838;2024-03-25T00:38:31;5.17;;;2.63;;
32292;SDS011;43233;48.608;8.838;2024-03-25T00:40:56;3.47;;;3.17;;
32292;SDS011;43233;48.608;8.838;2024-03-25T00:43:22;4.13;;;3.10;;
32292;SDS011;43233;48.608;8.838;2024-03-25T00:45:48;5.73;;;3.10;;
32292;SDS011;43233;48.608;8.838;2024-03-25T00:48:14;5.60;;;3.50;;
32292;SDS011;43233;48.608;8.838;2024-03-25T00:50:39;4.20;;;3.77;;
32292;SDS011;43233;48.608;8.838;2024-03-25T00:53:05;4.93;;;3.20;;
32292;SDS011;43233;48.608;8.838;2024-03-25T00:55:32;9.20;;;3.60;;
32292;SDS011;43233;48.608;8.838;2024-03-25T00:58:00;3.97;;;3.00;;
32292;SDS011;43233;48.608;8.838;2024-03-25T01:00:29;5.23;;;3.53;;
32292;SDS011;43233;48.608;8.838;2024-03-25T01:02:54;6.63;;;3.30;;
32292;SDS011;43233;48.608;8.838;2024-03-25T01:05:20;3.97;;;2.87;;
32292;SDS011;43233;48.608;8.838;2024-03-25T01:07:46;9.57;;;3.27;;
32292;SDS011;43233;48.608;8.838;2024-03-25T01:10:11;6.47;;;3.70;;
32292;SDS011;43233;48.608;8.838;2024-03-25T01:12:37;7.60;;;3.80;;
32292;SDS011;43233;48.608;8.838;2024-03-25T01:15:03;7.37;;;4.47;;
32292;SDS011;43233;48.608;8.838;2024-03-25T01:17:30;4.47;;;3.47;;
32292;SDS011;43233;48.608;8.838;2024-03-25T01:19:56;4.20;;;2.80;;
32292;SDS011;43233;48.608;8.838;2024-03-25T01:22:21;4.63;;;3.67;;
32292;SDS011;43233;48.608;8.838;2024-03-25T01:24:47;5.17;;;3.80;;
32292;SDS011;43233;48.608;8.838;2024-03-25T01:27:12;4.90;;;3.80;;
32292;SDS011;43233;48.608;8.838;2024-03-25T01:29:38;5.17;;;3.20;;
32292;SDS011;43233;48.608;8.838;2024-03-25T01:32:04;3.63;;;3.33;;
32292;SDS011;43233;48.608;8.838;2024-03-25T01:34:30;6.90;;;4.17;;
32292;SDS011;43233;48.608;8.838;2024-03-25T01:36:56;5.37;;;3.40;;
32292;SDS011;43233;48.608;8.838;2024-03-25T01:39:22;4.13;;;3.10;;
32292;SDS011;43233;48.608;8.838;2024-03-25T01:41:49;4.30;;;3.50;;
32292;SDS011;43233;48.608;8.838;2024-03-25T01:44:15;6.17;;;4.10;;
32292;SDS011;43233;48.608;8.838;2024-03-25T01:46:41;6.70;;;3.67;;
32292;SDS011;43233;48.608;8.838;2024-03-25T01:49:08;7.07;;;3.87;;
32292;SDS011;43233;48.608;8.838;2024-03-25T01:51:33;3.60;;;3.30;;
32292;SDS011;43233;48.608;8.838;2024-03-25T01:54:01;4.57;;;3.93;;
32292;SDS011;43233;48.608;8.838;2024-03-25T01:56:29;9.50;;;3.60;;
32292;SDS011;43233;48.608;8.838;2024-03-25T01:58:57;3.60;;;3.30;;
32292;SDS011;43233;48.608;8.838;2024-03-25T02:01:23;4.73;;;3.60;;
32292;SDS011;43233;48.608;8.838;2024-03-25T02:03:49;5.07;;;4.10;;
32292;SDS011;43233;48.608;8.838;2024-03-25T02:06:17;6.73;;;3.80;;
32292;SDS011;43233;48.608;8.838;2024-03-25T02:08:43;5.27;;;4.40;;
32292;SDS011;43233;48.608;8.838;2024-03-25T02:11:09;9.40;;;3.77;;
32292;SDS011;43233;48.608;8.838;2024-03-25T02:13:37;8.60;;;3.40;;
32292;SDS011;43233;48.608;8.838;2024-03-25T02:16:04;4.03;;;3.73;;
32292;SDS011;43233;48.608;8.838;2024-03-25T02:18:30;4.93;;;3.60;;
32292;SDS011;43233;48.608;8.838;2024-03-25T02:20:56;5.63;;;3.70;;
32292;SDS011;43233;48.608;8.838;2024-03-25T02:23:22;6.90;;;3.43;;
32292;SDS011;43233;48.608;8.838;2024-03-25T02:25:52;4.53;;;4.10;;
32292;SDS011;43233;48.608;8.838;2024-03-25T02:28:18;4.77;;;3.73;;
32292;SDS011;43233;48.608;8.838;2024-03-25T02:30:44;4.90;;;4.10;;
32292;SDS011;43233;48.608;8.838;2024-03-25T02:33:10;3.60;;;3.33;;
32292;SDS011;43233;48.608;8.838;2024-03-25T02:35:36;10.23;;;4.00;;
32292;SDS011;43233;48.608;8.838;2024-03-25T02:38:04;7.97;;;3.80;;
32292;SDS011;43233;48.608;8.838;2024-03-25T02:40:30;4.70;;;4.00;;
32292;SDS011;43233;48.608;8.838;2024-03-25T02:42:56;4.53;;;3.60;;
32292;SDS011;43233;48.608;8.838;2024-03-25T02:45:23;9.13;;;3.80;;
32292;SDS011;43233;48.608;8.838;2024-03-25T02:47:49;3.93;;;3.53;;
32292;SDS011;43233;48.608;8.838;2024-03-25T02:50:15;6.10;;;3.80;;
32292;SDS011;43233;48.608;8.838;2024-03-25T02:52:41;5.17;;;3.70;;
32292;SDS011;43233;48.608;8.838;2024-03-25T02:55:07;6.63;;;3.63;;
32292;SDS011;43233;48.608;8.838;2024-03-25T02:57:32;14.73;;;4.27;;
32292;SDS011;43233;48.608;8.838;2024-03-25T02:59:58;5.50;;;4.10;;
32292;SDS011;43233;48.608;8.838;2024-03-25T03:02:24;6.43;;;3.80;;
32292;SDS011;43233;48.608;8.838;2024-03-25T03:04:49;9.77;;;4.37;;
32292;SDS011;43233;48.608;8.838;2024-03-25T03:07:15;5.60;;;3.97;;
32292;SDS011;43233;48.608;8.838;2024-03-25T03:09:41;12.70;;;3.67;;
32292;SDS011;43233;48.608;8.838;2024-03-25T03:12:07;6.47;;;4.40;;
32292;SDS011;43233;48.608;8.838;2024-03-25T03:14:32;8.10;;;4.60;;
32292;SDS011;43233;48.608;8.838;2024-03-25T03:16:58;7.43;;;3.50;;
32292;SDS011;43233;48.608;8.838;2024-03-25T03:19:27;5.67;;;4.00;;
32292;SDS011;43233;48.608;8.838;2024-03-25T03:21:52;9.67;;;4.60;;
32292;SDS011;43233;48.608;8.838;2024-03-25T03:24:18;4.40;;;4.00;;
32292;SDS011;43233;48.608;8.838;2024-03-25T03:26:44;9.93;;;4.30;;
32292;SDS011;43233;48.608;8.838;2024-03-25T03:29:10;5.60;;;4.00;;
32292;SDS011;43233;48.608;8.838;2024-03-25T03:31:36;12.70;;;4.53;;
32292;SDS011;43233;48.608;8.838;2024-03-25T03:34:02;5.13;;;3.90;;
32292;SDS011;43233;48.608;8.838;2024-03-25T03:36:28;5.40;;;3.97;;
32292;SDS011;43233;48.608;8.838;2024-03-25T03:38:54;8.53;;;3.60;;
32292;SDS011;43233;48.608;8.838;2024-03-25T03:41:19;4.70;;;4.03;;
32292;SDS011;43233;48.608;8.838;2024-03-25T03:43:45;6.37;;;3.83;;
32292;SDS011;43233;48.608;8.838;2024-03-25T03:46:11;9.83;;;3.87;;
32292;SDS011;43233;48.608;8.838;2024-03-25T03:48:37;6.33;;;4.60;;
32292;SDS011;43233;48.608;8.838;2024-03-25T03:51:06;4.80;;;4.00;;
32292;SDS011;43233;48.608;8.838;2024-03-25T03:53:32;4.40;;;3.70;;
32292;SDS011;43233;48.608;8.838;2024-03-25T03:55:59;8.10;;;5.33;;
32292;SDS011;43233;48.608;8.838;2024-03-25T03:58:32;8.00;;;4.50;;
32292;SDS011;43233;48.608;8.838;2024-03-25T04:00:58;4.50;;;3.70;;
32292;SDS011;43233;48.608;8.838;2024-03-25T04:03:24;4.37;;;3.80;;
32292;SDS011;43233;48.608;8.838;2024-03-25T04:05:50;7.00;;;4.77;;
32292;SDS011;43233;48.608;8.838;2024-03-25T04:08:16;7.37;;;4.50;;
32292;SDS011;43233;48.608;8.838;2024-03-25T04:10:42;6.73;;;3.93;;
32292;SDS011;43233;48.608;8.838;2024-03-25T04:13:09;6.53;;;5.03;;
32292;SDS011;43233;48.608;8.838;2024-03-25T04:15:35;4.90;;;4.33;;
32292;SDS011;43233;48.608;8.838;2024-03-25T04:18:01;6.40;;;4.37;;
32292;SDS011;43233;48.608;8.838;2024-03-25T04:20:28;6.77;;;6.17;;
32292;SDS011;43233;48.608;8.838;2024-03-25T04:22:53;5.40;;;5.00;;
32292;SDS011;43233;48.608;8.838;2024-03-25T04:25:19;8.40;;;5.03;;
32292;SDS011;43233;48.608;8.838;2024-03-25T04:27:45;4.80;;;4.17;;
32292;SDS011;43233;48.608;8.838;2024-03-25T04:30:11;5.80;;;4.63;;
32292;SDS011;43233;48.608;8.838;2024-03-25T04:32:38;5.93;;;4.00;;
32292;SDS011;43233;48.608;8.838;2024-03-25T04:35:07;6.30;;;4.60;;
32292;SDS011;43233;48.608;8.838;2024-03-25T04:37:33;8.00;;;5.60;;
32292;SDS011;43233;48.608;8.838;2024-03-25T04:40:00;9.43;;;4.33;;
32292;SDS011;43233;48.608;8.838;2024-03-25T04:42:26;11.10;;;5.17;;
32292;SDS011;43233;48.608;8.838;2024-03-25T04:44:52;8.40;;;4.40;;
32292;SDS011;43233;48.608;8.838;2024-03-25T04:47:18;5.23;;;4.20;;
32292;SDS011;43233;48.608;8.838;2024-03-25T04:49:44;7.30;;;4.10;;
32292;SDS011;43233;48.608;8.838;2024-03-25T04:52:10;6.17;;;3.53;;
32292;SDS011;43233;48.608;8.838;2024-03-25T04:54:38;9.03;;;4.80;;
32292;SDS011;43233;48.608;8.838;2024-03-25T04:57:04;11.00;;;4.47;;
32292;SDS011;43233;48.608;8.838;2024-03-25T04:59:31;11.50;;;4.43;;
32292;SDS011;43233;48.608;8.838;2024-03-25T05:01:57;4.80;;;4.30;;
32292;SDS011;43233;48.608;8.838;2024-03-25T05:04:22;6.07;;;4.87;;
32292;SDS011;43233;48.608;8.838;2024-03-25T05:06:49;9.30;;;5.10;;
32292;SDS011;43233;48.608;8.838;2024-03-25T05:09:15;6.17;;;4.00;;
32292;SDS011;43233;48.608;8.838;2024-03-25T05:11:41;5.00;;;4.50;;
32292;SDS011;43233;48.608;8.838;2024-03-25T05:14:07;8.10;;;3.43;;
32292;SDS011;43233;48.608;8.838;2024-03-25T05:16:33;6.70;;;4.50;;
32292;SDS011;43233;48.608;8.838;2024-03-25T05:18:58;9.13;;;6.20;;
32292;SDS011;43233;48.608;8.838;2024-03-25T05:21:24;8.93;;;7.03;;
32292;SDS011;43233;48.608;8.838;2024-03-25T05:23:49;11.80;;;4.63;;
32292;SDS011;43233;48.608;8.838;2024-03-25T05:26:15;8.33;;;4.30;;
32292;SDS011;43233;48.608;8.838;2024-03-25T05:28:41;7.60;;;5.00;;
32292;SDS011;43233;48.608;8.838;2024-03-25T05:31:07;6.00;;;4.50;;
32292;SDS011;43233;48.608;8.838;2024-03-25T05:33:33;8.03;;;5.37;;
32292;SDS011;43233;48.608;8.838;2024-03-25T05:35:59;7.50;;;5.27;;
32292;SDS011;43233;48.608;8.838;2024-03-25T05:38:26;15.93;;;7.93;;
32292;SDS011;43233;48.608;8.838;2024-03-25T05:40:52;5.40;;;4.70;;
32292;SDS011;43233;48.608;8.838;2024-03-25T05:43:18;11.13;;;4.97;;
32292;SDS011;43233;48.608;8.838;2024-03-25T05:45:51;11.20;;;7.00;;
32292;SDS011;43233;48.608;8.838;2024-03-25T05:48:18;15.87;;;7.27;;
32292;SDS011;43233;48.608;8.838;2024-03-25T05:50:44;12.93;;;6.27;;
32292;SDS011;43233;48.608;8.838;2024-03-25T05:53:10;11.43;;;6.17;;
32292;SDS011;43233;48.608;8.838;2024-03-25T05:55:36;9.60;;;6.33;;
32292;SDS011;43233;48.608;8.838;2024-03-25T05:58:02;15.60;;;7.23;;
32292;SDS011;43233;48.608;8.838;2024-03-25T06:00:28;11.90;;;6.03;;
32292;SDS011;43233;48.608;8.838;2024-03-25T06:02:55;7.93;;;5.00;;
32292;SDS011;43233;48.608;8.838;2024-03-25T06:05:21;6.50;;;4.70;;
32292;SDS011;43233;48.608;8.838;2024-03-25T06:07:47;6.40;;;4.70;;
32292;SDS011;43233;48.608;8.838;2024-03-25T06:10:12;6.70;;;5.27;;
32292;SDS011;43233;48.608;8.838;2024-03-25T06:12:38;22.73;;;12.80;;
32292;SDS011;43233;48.608;8.838;2024-03-25T06:15:04;8.93;;;5.17;;
32292;SDS011;43233;48.608;8.838;2024-03-25T06:17:30;13.50;;;6.60;;
32292;SDS011;43233;48.608;8.838;2024-03-25T06:19:55;13.60;;;8.37;;
32292;SDS011;43233;48.608;8.838;2024-03-25T06:22:21;14.87;;;8.70;;
32292;SDS011;43233;48.608;8.838;2024-03-25T06:24:46;16.90;;;8.43;;
32292;SDS011;43233;48.608;8.838;2024-03-25T06:27:14;12.50;;;6.40;;
32292;SDS011;43233;48.608;8.838;2024-03-25T06:29:39;11.30;;;6.37;;
32292;SDS011;43233;48.608;8.838;2024-03-25T06:32:05;19.37;;;10.13;;
32292;SDS011;43233;48.608;8.838;2024-03-25T06:34:49;16.67;;;8.87;;
32292;SDS011;43233;48.608;8.838;2024-03-25T06:37:15;11.30;;;6.60;;
32292;SDS011;43233;48.608;8.838;2024-03-25T06:39:40;6.20;;;5.50;;
32292;SDS011;43233;48.608;8.838;2024-03-25T06:42:06;7.83;;;5.03;;
32292;SDS011;43233;48.608;8.838;2024-03-25T06:44:32;10.90;;;5.80;;
32292;SDS011;43233;48.608;8.838;2024-03-25T06:46:58;5.00;;;4.50;;
32292;SDS011;43233;48.608;8.838;2024-03-25T06:49:23;9.00;;;4.73;;
32292;SDS011;43233;48.608;8.838;2024-03-25T06:51:49;8.83;;;5.00;;
32292;SDS011;43233;48.608;8.838;2024-03-25T06:54:14;6.40;;;4.33;;
32292;SDS011;43233;48.608;8.838;2024-03-25T06:56:40;8.07;;;5.50;;
32292;SDS011;43233;48.608;8.838;2024-03-25T06:59:06;12.90;;;5.40;;
32292;SDS011;43233;48.608;8.838;2024-03-25T07:01:32;5.00;;;4.40;;
32292;SDS011;43233;48.608;8.838;2024-03-25T07:03:58;7.90;;;5.27;;
32292;SDS011;43233;48.608;8.838;2024-03-25T07:06:23;8.43;;;5.00;;
32292;SDS011;43233;48.608;8.838;2024-03-25T07:08:50;12.10;;;7.07;;
32292;SDS011;43233;48.608;8.838;2024-03-25T07:11:16;12.90;;;6.00;;
32292;SDS011;43233;48.608;8.838;2024-03-25T07:13:42;7.83;;;6.70;;
32292;SDS011;43233;48.608;8.838;2024-03-25T07:16:08;8.63;;;6.03;;
32292;SDS011;43233;48.608;8.838;2024-03-25T07:18:34;9.17;;;5.57;;
32292;SDS011;43233;48.608;8.838;2024-03-25T07:20:59;8.40;;;5.03;;
32292;SDS011;43233;48.608;8.838;2024-03-25T07:23:25;9.13;;;5.80;;
32292;SDS011;43233;48.608;8.838;2024-03-25T07:25:50;8.00;;;4.97;;
32292;SDS011;43233;48.608;8.838;2024-03-25T07:28:16;6.40;;;5.60;;
32292;SDS011;43233;48.608;8.838;2024-03-25T07:30:42;12.40;;;5.97;;
32292;SDS011;43233;48.608;8.838;2024-03-25T07:33:07;7.60;;;5.50;;
32292;SDS011;43233;48.608;8.838;2024-03-25T07:35:33;6.73;;;5.07;;
32292;SDS011;43233;48.608;8.838;2024-03-25T07:37:58;5.23;;;4.70;;
32292;SDS011;43233;48.608;8.838;2024-03-25T07:40:24;9.20;;;4.50;;
32292;SDS011;43233;48.608;8.838;2024-03-25T07:42:50;4.97;;;4.43;;
32292;SDS011;43233;48.608;8.838;2024-03-25T07:45:15;5.87;;;5.13;;
32292;SDS011;43233;48.608;8.838;2024-03-25T07:47:41;19.60;;;5.77;;
32292;SDS011;43233;48.608;8.838;2024-03-25T07:50:07;7.57;;;4.90;;
32292;SDS011;43233;48.608;8.838;2024-03-25T07:52:33;11.53;;;4.87;;
32292;SDS011;43233;48.608;8.838;2024-03-25T07:55:01;6.90;;;5.10;;
32292;SDS011;43233;48.608;8.838;2024-03-25T07:57:27;7.40;;;4.80;;
32292;SDS011;43233;48.608;8.838;2024-03-25T07:59:52;5.93;;;4.47;;
32292;SDS011;43233;48.608;8.838;2024-03-25T08:02:19;5.40;;;4.20;;
32292;SDS011;43233;48.608;8.838;2024-03-25T08:04:44;6.67;;;4.40;;
32292;SDS011;43233;48.608;8.838;2024-03-25T08:07:10;6.33;;;5.20;;
32292;SDS011;43233;48.608;8.838;2024-03-25T08:09:35;4.53;;;4.10;;
32292;SDS011;43233;48.608;8.838;2024-03-25T08:12:01;12.53;;;4.97;;
32292;SDS011;43233;48.608;8.838;2024-03-25T08:14:27;4.83;;;4.40;;
32292;SDS011;43233;48.608;8.838;2024-03-25T08:16:52;9.80;;;5.00;;
32292;SDS011;43233;48.608;8.838;2024-03-25T08:19:18;8.77;;;4.50;;
32292;SDS011;43233;48.608;8.838;2024-03-25T08:21:44;7.60;;;4.50;;
32292;SDS011;43233;48.608;8.838;2024-03-25T08:24:09;8.60;;;4.03;;
32292;SDS011;43233;48.608;8.838;2024-03-25T08:26:35;6.30;;;4.07;;
32292;SDS011;43233;48.608;8.838;2024-03-25T08:29:01;5.83;;;4.20;;
32292;SDS011;43233;48.608;8.838;2024-03-25T08:31:26;8.67;;;4.80;;
32292;SDS011;43233;48.608;8.838;2024-03-25T08:33:52;7.97;;;4.43;;
32292;SDS011;43233;48.608;8.838;2024-03-25T08:36:17;9.33;;;4.80;;
32292;SDS011;43233;48.608;8.838;2024-03-25T08:38:46;6.23;;;4.40;;
32292;SDS011;43233;48.608;8.838;2024-03-25T08:41:11;5.73;;;4.20;;
32292;SDS011;43233;48.608;8.838;2024-03-25T08:43:37;5.33;;;3.77;;
32292;SDS011;43233;48.608;8.838;2024-03-25T08:46:03;7.17;;;4.83;;
32292;SDS011;43233;48.608;8.838;2024-03-25T08:48:28;5.70;;;4.10;;
32292;SDS011;43233;48.608;8.838;2024-03-25T08:50:54;8.57;;;3.80;;
32292;SDS011;43233;48.608;8.838;2024-03-25T08:53:20;8.70;;;4.13;;
32292;SDS011;43233;48.608;8.838;2024-03-25T08:55:46;6.33;;;4.20;;
32292;SDS011;43233;48.608;8.838;2024-03-25T08:58:13;10.63;;;4.70;;
32292;SDS011;43233;48.608;8.838;2024-03-25T09:00:39;4.77;;;3.80;;
32292;SDS011;43233;48.608;8.838;2024-03-25T09:03:04;3.63;;;3.33;;
32292;SDS011;43233;48.608;8.838;2024-03-25T09:05:30;3.93;;;3.53;;
32292;SDS011;43233;48.608;8.838;2024-03-25T09:07:56;4.13;;;3.47;;
32292;SDS011;43233;48.608;8.838;2024-03-25T09:10:23;3.30;;;2.97;;
32292;SDS011;43233;48.608;8.838;2024-03-25T09:13:08;3.13;;;2.47;;
32292;SDS011;43233;48.608;8.838;2024-03-25T09:15:34;8.00;;;3.60;;
32292;SDS011;43233;48.608;8.838;2024-03-25T09:17:59;5.50;;;3.17;;
32292;SDS011;43233;48.608;8.838;2024-03-25T09:20:25;9.40;;;3.20;;
32292;SDS011;43233;48.608;8.838;2024-03-25T09:22:51;4.10;;;2.67;;
32292;SDS011;43233;48.608;8.838;2024-03-25T09:25:17;2.77;;;2.57;;
32292;SDS011;43233;48.608;8.838;2024-03-25T09:27:46;2.30;;;2.10;;
32292;SDS011;43233;48.608;8.838;2024-03-25T09:30:16;2.40;;;2.30;;
32292;SDS011;43233;48.608;8.838;2024-03-25T09:32:44;4.70;;;2.80;;
32292;SDS011;43233;48.608;8.838;2024-03-25T09:35:09;3.23;;;3.00;;
32292;SDS011;43233;48.608;8.838;2024-03-25T09:37:36;8.47;;;3.40;;
32292;SDS011;43233;48.608;8.838;2024-03-25T09:40:01;7.23;;;3.53;;
32292;SDS011;43233;48.608;8.838;2024-03-25T09:42:48;4.43;;;3.10;;
32292;SDS011;43233;48.608;8.838;2024-03-25T09:45:17;4.20;;;2.43;;
32292;SDS011;43233;48.608;8.838;2024-03-25T09:47:46;5.00;;;2.93;;
32292;SDS011;43233;48.608;8.838;2024-03-25T09:50:13;3.30;;;3.00;;
32292;SDS011;43233;48.608;8.838;2024-03-25T09:52:48;3.13;;;2.00;;
32292;SDS011;43233;48.608;8.838;2024-03-25T09:55:14;3.43;;;2.10;;
32292;SDS011;43233;48.608;8.838;2024-03-25T09:57:40;2.87;;;2.60;;
32292;SDS011;43233;48.608;8.838;2024-03-25T10:00:07;4.57;;;2.67;;
32292;SDS011;43233;48.608;8.838;2024-03-25T10:02:34;3.50;;;2.37;;
32292;SDS011;43233;48.608;8.838;2024-03-25T10:05:02;4.60;;;2.73;;
32292;SDS011;43233;48.608;8.838;2024-03-25T10:07:28;3.77;;;2.33;;
32292;SDS011;43233;48.608;8.838;2024-03-25T10:09:54;5.80;;;2.80;;
32292;SDS011;43233;48.608;8.838;2024-03-25T10:12:19;3.07;;;2.50;;
32292;SDS011;43233;48.608;8.838;2024-03-25T10:14:45;4.93;;;2.17;;
32292;SDS011;43233;48.608;8.838;2024-03-25T10:17:11;8.23;;;2.50;;
32292;SDS011;43233;48.608;8.838;2024-03-25T10:19:37;4.17;;;2.00;;
32292;SDS011;43233;48.608;8.838;2024-03-25T10:22:03;6.30;;;2.10;;
32292;SDS011;43233;48.608;8.838;2024-03-25T10:24:36;4.60;;;1.87;;
32292;SDS011;43233;48.608;8.838;2024-03-25T10:27:05;5.07;;;2.13;;
32292;SDS011;43233;48.608;8.838;2024-03-25T10:29:34;3.30;;;2.00;;
32292;SDS011;43233;48.608;8.838;2024-03-25T10:32:00;3.40;;;2.03;;
32292;SDS011;43233;48.608;8.838;2024-03-25T10:34:27;3.00;;;1.80;;
32292;SDS011;43233;48.608;8.838;2024-03-25T10:36:53;3.37;;;2.30;;
32292;SDS011;43233;48.608;8.838;2024-03-25T10:39:24;3.73;;;2.17;;
32292;SDS011;43233;48.608;8.838;2024-03-25T10:42:01;2.17;;;1.90;;
32292;SDS011;43233;48.608;8.838;2024-03-25T10:44:29;2.53;;;2.07;;
32292;SDS011;43233;48.608;8.838;2024-03-25T10:46:57;3.10;;;1.50;;
32292;SDS011;43233;48.608;8.838;2024-03-25T10:49:44;3.87;;;2.00;;
32292;SDS011;43233;48.608;8.838;2024-03-25T10:52:16;2.23;;;1.80;;
32292;SDS011;43233;48.608;8.838;2024-03-25T10:54:44;3.90;;;1.87;;
32292;SDS011;43233;48.608;8.838;2024-03-25T10:57:12;3.47;;;1.97;;
32292;SDS011;43233;48.608;8.838;2024-03-25T10:59:38;4.20;;;2.40;;
32292;SDS011;43233;48.608;8.838;2024-03-25T11:02:09;2.20;;;1.70;;
32292;SDS011;43233;48.608;8.838;2024-03-25T11:04:36;3.40;;;1.80;;
32292;SDS011;43233;48.608;8.838;2024-03-25T11:07:06;2.83;;;1.80;;
32292;SDS011;43233;48.608;8.838;2024-03-25T11:09:36;2.93;;;1.60;;
32292;SDS011;43233;48.608;8.838;2024-03-25T11:12:02;3.47;;;2.10;;
32292;SDS011;43233;48.608;8.838;2024-03-25T11:14:28;3.73;;;1.80;;
32292;SDS011;43233;48.608;8.838;2024-03-25T11:16:57;4.77;;;2.00;;
32292;SDS011;43233;48.608;8.838;2024-03-25T11:19:26;2.10;;;1.67;;
32292;SDS011;43233;48.608;8.838;2024-03-25T11:21:53;2.17;;;1.97;;
32292;SDS011;43233;48.608;8.838;2024-03-25T11:24:28;3.13;;;1.67;;
32292;SDS011;43233;48.608;8.838;2024-03-25T11:26:55;1.97;;;1.73;;
32292;SDS011;43233;48.608;8.838;2024-03-25T11:29:21;2.70;;;2.10;;
32292;SDS011;43233;48.608;8.838;2024-03-25T11:31:48;2.60;;;1.60;;
32292;SDS011;43233;48.608;8.838;2024-03-25T11:34:14;1.63;;;1.53;;
32292;SDS011;43233;48.608;8.838;2024-03-25T11:36:40;3.87;;;2.00;;
32292;SDS011;43233;48.608;8.838;2024-03-25T11:39:06;1.47;;;1.33;;
32292;SDS011;43233;48.608;8.838;2024-03-25T11:41:35;3.67;;;1.97;;
32292;SDS011;43233;48.608;8.838;2024-03-25T11:44:05;3.50;;;1.90;;
32292;SDS011;43233;48.608;8.838;2024-03-25T11:46:33;3.10;;;1.93;;
32292;SDS011;43233;48.608;8.838;2024-03-25T11:49:04;1.87;;;1.67;;
32292;SDS011;43233;48.608;8.838;2024-03-25T11:51:32;2.80;;;2.20;;
32292;SDS011;43233;48.608;8.838;2024-03-25T11:53:58;2.30;;;1.50;;
32292;SDS011;43233;48.608;8.838;2024-03-25T11:56:24;5.20;;;2.17;;
32292;SDS011;43233;48.608;8.838;2024-03-25T11:58:51;1.60;;;1.50;;
32292;SDS011;43233;48.608;8.838;2024-03-25T12:01:17;5.33;;;1.50;;
32292;SDS011;43233;48.608;8.838;2024-03-25T12:03:42;2.63;;;1.50;;
32292;SDS011;43233;48.608;8.838;2024-03-25T12:06:08;2.27;;;1.13;;
32292;SDS011;43233;48.608;8.838;2024-03-25T12:08:33;3.30;;;1.60;;
32292;SDS011;43233;48.608;8.838;2024-03-25T12:11:09;1.93;;;1.43;;
32292;SDS011;43233;48.608;8.838;2024-03-25T12:13:44;3.83;;;1.40;;
32292;SDS011;43233;48.608;8.838;2024-03-25T12:16:09;1.83;;;1.67;;
32292;SDS011;43233;48.608;8.838;2024-03-25T12:18:35;1.83;;;1.73;;
32292;SDS011;43233;48.608;8.838;2024-03-25T12:21:04;1.47;;;1.20;;
32292;SDS011;43233;48.608;8.838;2024-03-25T12:23:30;5.80;;;1.63;;
32292;SDS011;43233;48.608;8.838;2024-03-25T12:25:56;3.17;;;1.60;;
32292;SDS011;43233;48.608;8.838;2024-03-25T12:28:24;1.97;;;1.33;;
32292;SDS011;43233;48.608;8.838;2024-03-25T12:30:51;1.73;;;1.40;;
32292;SDS011;43233;48.608;8.838;2024-03-25T12:33:17;3.83;;;1.80;;
32292;SDS011;43233;48.608;8.838;2024-03-25T12:35:46;1.70;;;1.47;;
32292;SDS011;43233;48.608;8.838;2024-03-25T12:40:51;1.50;;;1.40;;
32292;SDS011;43233;48.608;8.838;2024-03-25T12:43:18;3.03;;;1.43;;
32292;SDS011;43233;48.608;8.838;2024-03-25T12:45:44;1.63;;;1.53;;
32292;SDS011;43233;48.608;8.838;2024-03-25T12:48:09;1.10;;;1.10;;
32292;SDS011;43233;48.608;8.838;2024-03-25T12:50:35;2.10;;;1.80;;
32292;SDS011;43233;48.608;8.838;2024-03-25T12:53:01;5.30;;;1.83;;
32292;SDS011;43233;48.608;8.838;2024-03-25T12:55:30;5.87;;;2.00;;
32292;SDS011;43233;48.608;8.838;2024-03-25T12:57:56;2.07;;;1.80;;
32292;SDS011;43233;48.608;8.838;2024-03-25T13:00:21;2.70;;;1.50;;
32292;SDS011;43233;48.608;8.838;2024-03-25T13:02:47;2.37;;;1.70;;
32292;SDS011;43233;48.608;8.838;2024-03-25T13:05:13;3.50;;;2.27;;
32292;SDS011;43233;48.608;8.838;2024-03-25T13:07:39;4.73;;;1.70;;
32292;SDS011;43233;48.608;8.838;2024-03-25T13:10:05;3.43;;;1.67;;
32292;SDS011;43233;48.608;8.838;2024-03-25T13:12:31;1.50;;;1.40;;
32292;SDS011;43233;48.608;8.838;2024-03-25T13:14:56;3.70;;;1.97;;
32292;SDS011;43233;48.608;8.838;2024-03-25T13:17:24;6.03;;;3.20;;
32292;SDS011;43233;48.608;8.838;2024-03-25T13:19:49;2.30;;;1.80;;
32292;SDS011;43233;48.608;8.838;2024-03-25T13:22:15;3.13;;;1.63;;
32292;SDS011;43233;48.608;8.838;2024-03-25T13:24:41;3.53;;;2.10;;
32292;SDS011;43233;48.608;8.838;2024-03-25T13:27:06;1.77;;;1.57;;
32292;SDS011;43233;48.608;8.838;2024-03-25T13:29:32;5.20;;;2.00;;
32292;SDS011;43233;48.608;8.838;2024-03-25T13:32:01;2.23;;;1.60;;
32292;SDS011;43233;48.608;8.838;2024-03-25T13:34:26;3.97;;;1.93;;
32292;SDS011;43233;48.608;8.838;2024-03-25T13:36:52;1.83;;;1.70;;
32292;SDS011;43233;48.608;8.838;2024-03-25T13:39:19;2.20;;;2.00;;
32292;SDS011;43233;48.608;8.838;2024-03-25T13:41:44;3.77;;;1.80;;
32292;SDS011;43233;48.608;8.838;2024-03-25T13:44:10;2.43;;;1.63;;
32292;SDS011;43233;48.608;8.838;2024-03-25T13:46:36;3.73;;;1.70;;
32292;SDS011;43233;48.608;8.838;2024-03-25T13:49:02;2.37;;;1.40;;
32292;SDS011;43233;48.608;8.838;2024-03-25T13:51:27;1.43;;;1.30;;
32292;SDS011;43233;48.608;8.838;2024-03-25T13:53:53;1.93;;;1.70;;
32292;SDS011;43233;48.608;8.838;2024-03-25T13:56:19;2.40;;;2.17;;
32292;SDS011;43233;48.608;8.838;2024-03-25T13:58:44;4.20;;;2.40;;
32292;SDS011;43233;48.608;8.838;2024-03-25T14:01:10;2.80;;;2.07;;
32292;SDS011;43233;48.608;8.838;2024-03-25T14:03:35;5.57;;;1.73;;
32292;SDS011;43233;48.608;8.838;2024-03-25T14:06:01;13.33;;;1.77;;
32292;SDS011;43233;48.608;8.838;2024-03-25T14:08:27;1.77;;;1.43;;
32292;SDS011;43233;48.608;8.838;2024-03-25T14:10:59;2.50;;;1.97;;
32292;SDS011;43233;48.608;8.838;2024-03-25T14:13:26;3.33;;;1.90;;
32292;SDS011;43233;48.608;8.838;2024-03-25T14:15:52;1.57;;;1.47;;
32292;SDS011;43233;48.608;8.838;2024-03-25T14:18:17;2.60;;;1.57;;
32292;SDS011;43233;48.608;8.838;2024-03-25T14:20:43;2.40;;;1.50;;
32292;SDS011;43233;48.608;8.838;2024-03-25T14:23:09;4.57;;;2.10;;
32292;SDS011;43233;48.608;8.838;2024-03-25T14:25:35;2.07;;;1.67;;
32292;SDS011;43233;48.608;8.838;2024-03-25T14:28:00;2.37;;;1.73;;
32292;SDS011;43233;48.608;8.838;2024-03-25T14:30:26;1.77;;;1.67;;
32292;SDS011;43233;48.608;8.838;2024-03-25T14:32:52;1.50;;;1.40;;
32292;SDS011;43233;48.608;8.838;2024-03-25T14:35:20;2.00;;;1.80;;
32292;SDS011;43233;48.608;8.838;2024-03-25T14:37:46;1.73;;;1.63;;
32292;SDS011;43233;48.608;8.838;2024-03-25T14:40:11;1.47;;;1.30;;
32292;SDS011;43233;48.608;8.838;2024-03-25T14:42:38;5.00;;;2.07;;
32292;SDS011;43233;48.608;8.838;2024-03-25T14:45:04;2.00;;;1.73;;